Time;durP1;ratioP1;P1;durP2;ratioP2;P2;SDS_P1;SDS_P2;PMS_P1;PMS_P2;Temp;Humidity;BMP_temperature;BMP_pressure;BME280_temperature;BME280_humidity;BME280_pressure;Samples;Min_cycle;Max_cycle;Signal;HPM_P1;HPM_P2
2021/06/12 00:01:31;;;;;;;1.73;0.60;;;14.70;99.90;;;;;;6196157;23;20177;-90
2021/06/12 00:04:02;;;;;;;2.50;0.90;;;14.60;99.90;;;;;;6189998;23;20204;-94
2021/06/12 00:06:33;;;;;;;1.33;0.80;;;14.50;99.90;;;;;;6190237;23;20177;-94
2021/06/12 00:09:03;;;;;;;2.63;0.97;;;14.50;99.90;;;;;;6190804;23;20212;-94
2021/06/12 00:11:34;;;;;;;1.53;0.73;;;14.40;99.90;;;;;;6189616;23;20200;-95
2021/06/12 00:14:05;;;;;;;1.77;0.80;;;14.30;99.90;;;;;;6139653;23;20260;-94
2021/06/12 00:16:37;;;;;;;3.07;1.10;;;14.30;99.90;;;;;;6188227;23;20169;-96
2021/06/12 00:19:08;;;;;;;2.47;1.00;;;14.30;99.90;;;;;;6188958;23;20636;-94
2021/06/12 00:21:39;;;;;;;7.03;1.70;;;14.40;99.90;;;;;;6189193;23;20177;-96
2021/06/12 00:24:11;;;;;;;3.27;1.10;;;14.40;99.90;;;;;;6196251;23;20204;-94
2021/06/12 00:26:41;;;;;;;1.73;0.77;;;14.30;99.90;;;;;;6192508;23;20247;-91
2021/06/12 00:29:12;;;;;;;4.53;1.10;;;14.40;99.90;;;;;;6188933;23;20200;-93
2021/06/12 00:31:44;;;;;;;3.47;1.23;;;14.50;99.90;;;;;;6188630;23;20203;-93
2021/06/12 00:34:15;;;;;;;0.97;0.83;;;14.40;99.90;;;;;;6193276;23;20235;-95
2021/06/12 00:36:46;;;;;;;2.23;1.10;;;14.40;99.90;;;;;;6192784;23;20177;-94
2021/06/12 00:39:19;;;;;;;1.00;0.90;;;14.30;99.90;;;;;;6198648;23;20177;-94
2021/06/12 00:41:50;;;;;;;1.57;0.80;;;14.30;99.90;;;;;;6203051;23;20173;-95
2021/06/12 00:44:21;;;;;;;5.13;1.03;;;14.30;99.90;;;;;;6192339;23;20216;-94
2021/06/12 00:47:10;;;;;;;1.70;1.10;;;14.40;99.90;;;;;;6168782;23;20225;-90
2021/06/12 00:49:41;;;;;;;2.97;1.73;;;14.30;99.90;;;;;;6157119;23;20201;-94
2021/06/12 00:52:11;;;;;;;3.20;2.30;;;14.10;99.90;;;;;;6157270;23;20182;-90
2021/06/12 00:54:44;;;;;;;3.33;2.50;;;14.00;99.90;;;;;;6159723;23;20198;-96
2021/06/12 00:57:15;;;;;;;3.47;2.10;;;14.00;99.90;;;;;;6160185;23;20208;-96
2021/06/12 01:05:24;;;;;;;5.00;3.97;;;13.90;99.90;;;;;;6163055;23;20607;-96
2021/06/12 01:07:55;;;;;;;4.57;3.33;;;14.10;99.90;;;;;;6159331;23;20237;-96
2021/06/12 01:10:27;;;;;;;6.40;2.80;;;14.00;99.90;;;;;;6159115;23;20240;-96
2021/06/12 01:13:11;;;;;;;5.33;2.87;;;13.90;99.90;;;;;;6160352;23;20257;-95
2021/06/12 01:15:52;;;;;;;3.10;1.63;;;14.00;99.90;;;;;;6160894;23;20252;-93
2021/06/12 01:18:30;;;;;;;2.57;1.70;;;13.80;99.90;;;;;;6160088;23;20189;-96
2021/06/12 01:24:15;;;;;;;2.67;1.20;;;14.10;99.90;;;;;;6206216;23;20299;-96
2021/06/12 01:27:02;;;;;;;3.43;1.70;;;14.30;99.90;;;;;;6207031;23;20180;-96
2021/06/12 01:30:08;;;;;;;1.57;1.30;;;14.40;99.90;;;;;;6192147;23;20228;-95
2021/06/12 01:32:42;;;;;;;1.70;1.10;;;14.40;99.90;;;;;;6152704;23;20181;-95
2021/06/12 01:35:16;;;;;;;1.97;1.20;;;14.50;99.90;;;;;;6188684;23;20189;-95
2021/06/12 01:37:49;;;;;;;1.67;1.10;;;14.30;99.90;;;;;;6187412;23;20199;-92
2021/06/12 01:40:25;;;;;;;1.70;1.20;;;14.20;99.90;;;;;;6187094;23;20260;-94
2021/06/12 01:42:58;;;;;;;1.60;1.40;;;14.20;99.90;;;;;;6187114;23;20177;-94
2021/06/12 01:45:31;;;;;;;1.83;1.20;;;14.10;99.90;;;;;;6187272;23;20169;-92
2021/06/12 01:48:03;;;;;;;1.40;1.10;;;14.20;99.90;;;;;;6187891;23;20686;-94
2021/06/12 01:50:33;;;;;;;1.77;1.10;;;14.20;99.90;;;;;;6186429;23;20208;-94
2021/06/12 01:53:05;;;;;;;1.57;1.30;;;14.40;99.90;;;;;;6188003;23;20700;-94
2021/06/12 01:55:37;;;;;;;1.50;1.20;;;14.50;99.90;;;;;;6161673;23;20184;-95
2021/06/12 01:58:10;;;;;;;1.57;1.30;;;14.50;99.90;;;;;;6187496;23;20244;-94
2021/06/12 02:00:44;;;;;;;1.43;1.23;;;14.50;99.90;;;;;;6187353;23;20483;-95
2021/06/12 02:03:15;;;;;;;1.57;1.10;;;14.60;99.90;;;;;;6187401;23;20212;-95
2021/06/12 02:05:47;;;;;;;1.70;1.40;;;14.60;99.90;;;;;;6188267;23;20177;-96
2021/06/12 02:08:20;;;;;;;4.17;1.30;;;14.60;99.90;;;;;;6187821;23;20200;-96
2021/06/12 02:10:53;;;;;;;1.83;1.40;;;14.60;99.90;;;;;;6187174;23;20197;-96
2021/06/12 02:13:26;;;;;;;1.60;1.50;;;14.60;99.90;;;;;;6139639;23;20522;-96
2021/06/12 02:16:15;;;;;;;2.97;1.83;;;14.60;99.90;;;;;;6192862;23;20203;-96
2021/06/12 02:18:47;;;;;;;2.87;1.50;;;14.70;99.90;;;;;;6210692;23;20161;-93
2021/06/12 02:24:00;;;;;;;1.93;1.50;;;14.60;99.90;;;;;;6177824;23;20213;-96
2021/06/12 02:26:37;;;;;;;2.80;1.40;;;14.70;99.90;;;;;;6195135;23;20161;-96
2021/06/12 04:25:23;;;;;;;1.90;1.40;;;13.80;99.90;;;;;;6148332;23;20250;-95
2021/06/12 04:27:54;;;;;;;2.17;1.30;;;13.80;99.90;;;;;;6193649;23;20188;-96
2021/06/12 04:30:26;;;;;;;1.80;1.07;;;13.80;99.90;;;;;;6191627;23;20211;-96
2021/06/12 04:33:09;;;;;;;1.30;1.00;;;13.80;99.90;;;;;;6206734;23;20183;-96
2021/06/12 04:35:40;;;;;;;1.63;1.47;;;13.80;99.90;;;;;;6176006;23;20177;-96
2021/06/12 04:38:10;;;;;;;1.90;1.20;;;13.70;99.90;;;;;;6202008;23;20237;-96
2021/06/12 04:40:44;;;;;;;3.20;1.40;;;13.70;99.90;;;;;;6185642;23;20177;-96
2021/06/12 04:43:15;;;;;;;1.90;1.10;;;13.70;99.90;;;;;;6211919;23;20204;-96
2021/06/12 04:45:46;;;;;;;1.87;1.50;;;13.70;99.90;;;;;;6184384;23;20174;-96
2021/06/12 04:48:16;;;;;;;1.53;1.43;;;13.70;99.90;;;;;;6192879;23;20177;-96
2021/06/12 04:50:47;;;;;;;1.40;1.30;;;13.70;99.90;;;;;;6190231;23;20177;-96
2021/06/12 04:53:18;;;;;;;1.77;1.60;;;13.70;99.90;;;;;;6189908;23;20658;-96
2021/06/12 04:55:51;;;;;;;1.70;1.53;;;13.70;99.90;;;;;;6193294;23;20188;-96
2021/06/12 04:58:23;;;;;;;1.67;1.57;;;13.70;99.90;;;;;;6196440;23;20177;-96
2021/06/12 05:00:54;;;;;;;1.33;1.23;;;13.70;99.90;;;;;;6165892;23;20181;-96
2021/06/12 05:03:25;;;;;;;1.50;1.40;;;13.60;99.90;;;;;;6191791;23;20251;-96
2021/06/12 05:05:56;;;;;;;11.87;2.00;;;13.70;99.90;;;;;;6166772;23;20204;-96
2021/06/12 05:08:30;;;;;;;3.93;1.60;;;13.70;99.90;;;;;;6191108;23;20185;-96
2021/06/12 05:11:03;;;;;;;7.43;1.40;;;13.70;99.90;;;;;;6189108;23;20177;-93
2021/06/12 05:13:35;;;;;;;2.77;1.50;;;13.70;99.90;;;;;;6189284;23;20188;-96
2021/06/12 05:16:06;;;;;;;2.97;1.40;;;13.70;99.90;;;;;;6188818;23;20208;-96
2021/06/12 05:18:41;;;;;;;3.10;1.40;;;13.70;99.90;;;;;;6189782;23;20646;-96
2021/06/12 05:21:13;;;;;;;3.87;1.30;;;13.60;99.90;;;;;;6188123;23;20192;-96
2021/06/12 05:23:45;;;;;;;1.27;1.17;;;13.50;99.90;;;;;;6189245;23;20189;-95
2021/06/12 05:26:17;;;;;;;2.10;1.37;;;13.40;99.90;;;;;;6190039;23;20663;-95
2021/06/12 05:28:50;;;;;;;2.17;1.37;;;13.40;99.90;;;;;;6187954;23;20208;-96
2021/06/12 05:31:20;;;;;;;1.67;1.00;;;13.40;99.90;;;;;;6162963;23;20193;-96
2021/06/12 05:33:51;;;;;;;2.27;1.57;;;13.30;99.90;;;;;;6189141;23;20208;-96
2021/06/12 05:36:22;;;;;;;1.83;1.60;;;13.30;99.90;;;;;;6189122;23;20240;-96
2021/06/12 05:38:52;;;;;;;1.90;1.57;;;13.30;99.90;;;;;;6189975;23;20196;-96
2021/06/12 05:41:27;;;;;;;2.10;1.63;;;13.30;99.90;;;;;;6189452;23;20651;-96
2021/06/12 05:43:59;;;;;;;2.37;1.40;;;13.30;99.90;;;;;;6194199;23;20196;-96
2021/06/12 05:46:29;;;;;;;2.60;1.93;;;13.30;99.90;;;;;;6200268;23;20180;-96
2021/06/12 05:49:02;;;;;;;3.33;1.90;;;13.40;99.90;;;;;;6198656;23;20203;-96
2021/06/12 05:51:33;;;;;;;2.23;1.50;;;13.50;99.90;;;;;;6207988;23;20177;-96
2021/06/12 05:54:04;;;;;;;2.00;1.60;;;13.40;99.90;;;;;;6207586;23;20188;-96
2021/06/12 05:56:41;;;;;;;2.03;1.70;;;13.40;99.90;;;;;;6207215;23;20161;-96
2021/06/12 05:59:12;;;;;;;2.07;1.83;;;13.50;99.90;;;;;;6190880;23;20554;-96
2021/06/12 06:01:42;;;;;;;3.07;2.20;;;13.60;99.90;;;;;;6188206;23;20196;-96
2021/06/12 06:04:13;;;;;;;1.67;1.50;;;13.60;99.90;;;;;;6164036;23;20193;-96
2021/06/12 06:06:44;;;;;;;5.60;1.93;;;13.60;99.90;;;;;;6189251;23;20184;-96
2021/06/12 06:09:15;;;;;;;4.80;1.70;;;13.50;99.90;;;;;;6190152;23;20177;-96
2021/06/12 06:11:48;;;;;;;2.50;1.60;;;13.50;99.90;;;;;;6189013;23;20177;-96
2021/06/12 06:14:19;;;;;;;4.07;1.60;;;13.50;99.90;;;;;;6189729;23;20216;-96
2021/06/12 06:16:50;;;;;;;2.53;1.70;;;13.50;99.90;;;;;;6189436;23;20174;-96
2021/06/12 06:19:21;;;;;;;2.17;1.57;;;13.50;99.90;;;;;;6195174;23;20239;-95
2021/06/12 06:21:52;;;;;;;3.73;1.80;;;13.50;99.90;;;;;;6199053;23;20176;-94
2021/06/12 06:24:23;;;;;;;5.33;2.60;;;13.50;99.90;;;;;;6188264;23;20232;-95
2021/06/12 06:26:57;;;;;;;9.53;3.13;;;13.40;99.90;;;;;;6186831;23;20201;-95
2021/06/12 06:29:28;;;;;;;16.60;3.70;;;13.40;99.90;;;;;;6187444;23;20256;-95
2021/06/12 06:31:59;;;;;;;7.63;3.00;;;13.30;99.90;;;;;;6187007;23;20193;-96
2021/06/12 06:34:30;;;;;;;6.77;3.07;;;13.20;99.90;;;;;;6187792;23;20269;-96
2021/06/12 06:37:01;;;;;;;4.77;2.60;;;13.20;99.90;;;;;;6187635;23;20207;-96
2021/06/12 06:39:32;;;;;;;4.03;2.80;;;13.20;99.90;;;;;;6189031;23;20169;-96
2021/06/12 06:42:06;;;;;;;4.80;3.00;;;13.20;99.90;;;;;;6188320;23;20500;-96
2021/06/12 06:44:38;;;;;;;5.17;2.90;;;13.20;99.90;;;;;;6188848;23;20565;-96
2021/06/12 06:47:09;;;;;;;3.63;3.10;;;13.20;99.90;;;;;;6189672;23;20181;-96
2021/06/12 06:49:42;;;;;;;2.93;2.63;;;13.30;99.90;;;;;;6190824;23;20219;-96
2021/06/12 06:52:14;;;;;;;4.40;3.03;;;13.20;99.90;;;;;;6193297;23;20224;-95
2021/06/12 06:54:45;;;;;;;4.87;3.40;;;13.10;99.90;;;;;;6167317;23;20184;-96
2021/06/12 06:57:19;;;;;;;3.87;3.17;;;13.00;99.90;;;;;;6177874;23;20218;-94
2021/06/12 06:59:50;;;;;;;3.77;3.23;;;13.00;99.90;;;;;;6213449;23;20165;-96
2021/06/12 07:04:56;;;;;;;4.83;3.50;;;12.90;99.90;;;;;;6205538;23;20210;-96
2021/06/12 07:07:29;;;;;;;3.97;2.80;;;13.00;99.90;;;;;;6212697;23;20229;-96
2021/06/12 07:10:02;;;;;;;4.57;2.97;;;13.00;99.90;;;;;;6203780;23;20501;-96
2021/06/12 07:12:37;;;;;;;3.80;3.20;;;13.00;99.90;;;;;;6170948;23;20221;-96
2021/06/12 07:15:10;;;;;;;3.73;2.90;;;12.90;99.90;;;;;;6167334;23;20173;-96
2021/06/12 07:17:41;;;;;;;4.37;3.10;;;12.90;99.90;;;;;;6193013;23;20193;-96
2021/06/12 07:20:14;;;;;;;6.37;3.77;;;12.90;99.90;;;;;;6192101;23;20719;-96
2021/06/12 07:22:45;;;;;;;7.17;2.80;;;12.80;99.90;;;;;;6192113;23;20178;-96
2021/06/12 07:25:16;;;;;;;4.63;2.53;;;12.80;99.90;;;;;;6166512;23;20243;-96
2021/06/12 07:27:49;;;;;;;8.90;2.50;;;12.80;99.90;;;;;;6191065;23;20216;-96
2021/06/12 07:30:20;;;;;;;3.80;2.40;;;12.80;99.90;;;;;;6190336;23;20241;-96
2021/06/12 07:32:52;;;;;;;3.70;2.50;;;12.80;99.90;;;;;;6190219;23;20264;-96
2021/06/12 07:35:23;;;;;;;4.47;2.27;;;12.80;99.90;;;;;;6165102;23;20584;-96
2021/06/12 07:37:58;;;;;;;5.27;2.70;;;12.80;99.90;;;;;;6190149;23;20243;-96
2021/06/12 07:40:29;;;;;;;6.50;3.03;;;12.80;99.90;;;;;;6189835;23;20235;-96
2021/06/12 07:43:03;;;;;;;5.43;3.73;;;12.80;99.90;;;;;;6189972;23;20522;-96
2021/06/12 07:45:35;;;;;;;4.80;4.40;;;12.80;99.90;;;;;;6164796;23;20205;-96
2021/06/12 07:48:07;;;;;;;4.77;4.30;;;12.90;99.90;;;;;;6191469;23;20173;-96
2021/06/12 07:50:39;;;;;;;4.87;4.47;;;12.80;99.90;;;;;;6193385;23;20177;-96
2021/06/12 07:53:11;;;;;;;4.83;4.30;;;12.70;99.90;;;;;;6194769;23;20177;-96
2021/06/12 07:55:46;;;;;;;6.57;4.23;;;12.70;99.90;;;;;;6193817;23;20632;-96
2021/06/12 07:58:22;;;;;;;7.13;4.10;;;12.80;99.90;;;;;;6207705;23;20173;-96
2021/06/12 08:00:54;;;;;;;4.80;4.30;;;12.90;99.90;;;;;;6203117;23;20172;-96
2021/06/12 08:03:25;;;;;;;4.70;3.57;;;12.90;99.90;;;;;;6206676;23;20212;-96
2021/06/12 08:05:57;;;;;;;5.10;4.50;;;13.00;99.90;;;;;;6204955;23;20228;-96
2021/06/12 08:08:28;;;;;;;5.70;4.53;;;12.90;99.90;;;;;;6207943;23;20192;-96
2021/06/12 08:11:00;;;;;;;6.13;4.77;;;12.90;99.90;;;;;;6205160;23;20177;-96
2021/06/12 08:13:43;;;;;;;6.07;5.47;;;12.90;99.90;;;;;;6204248;23;20207;-96
2021/06/12 08:16:14;;;;;;;6.73;5.53;;;12.90;99.90;;;;;;6197068;23;20176;-96
2021/06/12 08:18:46;;;;;;;5.70;5.20;;;13.00;99.90;;;;;;6195166;23;20261;-96
2021/06/12 08:21:17;;;;;;;5.50;4.90;;;12.90;99.90;;;;;;6190701;23;20188;-96
2021/06/12 08:23:48;;;;;;;5.10;4.60;;;12.90;99.90;;;;;;6190709;23;20184;-96
2021/06/12 08:26:20;;;;;;;5.00;4.60;;;13.00;99.90;;;;;;6188837;23;20279;-96
2021/06/12 08:28:55;;;;;;;5.63;4.83;;;13.00;99.90;;;;;;6192060;23;20681;-96
2021/06/12 08:31:26;;;;;;;4.90;4.30;;;13.10;99.90;;;;;;6187986;23;20177;-96
2021/06/12 08:33:58;;;;;;;5.27;4.00;;;13.10;99.90;;;;;;6188583;23;20256;-96
2021/06/12 08:36:34;;;;;;;5.07;4.57;;;13.10;99.90;;;;;;6188251;23;20173;-96
2021/06/12 08:39:05;;;;;;;4.40;3.87;;;13.00;99.90;;;;;;6190217;23;20252;-96
2021/06/12 08:41:37;;;;;;;4.23;3.83;;;13.10;99.90;;;;;;6190904;23;20177;-96
2021/06/12 08:44:13;;;;;;;6.60;3.63;;;13.10;99.90;;;;;;6168790;23;20177;-96
2021/06/12 08:46:46;;;;;;;4.93;3.87;;;13.20;99.90;;;;;;6168714;23;20197;-96
2021/06/12 08:49:19;;;;;;;4.50;3.73;;;13.20;99.90;;;;;;6205673;23;20230;-96
2021/06/12 08:51:54;;;;;;;3.93;3.60;;;13.10;99.90;;;;;;6213034;23;20172;-93
2021/06/12 08:54:28;;;;;;;3.97;3.37;;;13.10;99.90;;;;;;6212894;23;20181;-96
2021/06/12 08:57:01;;;;;;;4.17;3.57;;;13.10;99.90;;;;;;6187437;23;20177;-96
2021/06/12 08:59:36;;;;;;;4.00;3.60;;;13.00;99.90;;;;;;6188102;23;20157;-96
2021/06/12 09:02:08;;;;;;;3.60;3.30;;;13.00;99.90;;;;;;6212308;23;20181;-96
2021/06/12 09:04:44;;;;;;;4.97;3.23;;;13.10;99.90;;;;;;6179295;23;20287;-96
2021/06/12 09:07:21;;;;;;;3.80;2.60;;;13.10;99.90;;;;;;6163190;23;20181;-96
2021/06/12 09:10:01;;;;;;;3.10;2.50;;;13.10;99.90;;;;;;6164970;23;20506;-96
2021/06/12 09:12:48;;;;;;;3.83;2.60;;;13.10;99.90;;;;;;6188571;23;20165;-96
2021/06/12 09:15:22;;;;;;;3.37;2.90;;;13.00;99.90;;;;;;6188818;23;20215;-96
2021/06/12 09:17:56;;;;;;;5.03;3.10;;;13.00;99.90;;;;;;6189277;23;20634;-96
2021/06/12 09:20:48;;;;;;;5.50;2.83;;;13.10;99.90;;;;;;6167108;23;20204;-96
2021/06/12 09:23:20;;;;;;;3.80;2.47;;;13.10;99.90;;;;;;6211531;23;20165;-95
2021/06/12 09:25:52;;;;;;;3.67;2.33;;;13.20;99.90;;;;;;6211304;23;20200;-96
2021/06/12 09:28:25;;;;;;;4.50;2.00;;;13.20;99.90;;;;;;6197757;23;20191;-96
2021/06/12 09:31:16;;;;;;;2.37;2.00;;;13.20;99.90;;;;;;6138907;23;20177;-96
2021/06/12 09:33:50;;;;;;;3.40;2.20;;;13.10;99.90;;;;;;6189872;23;20497;-96
2021/06/12 09:36:21;;;;;;;2.80;2.13;;;13.10;99.90;;;;;;6188884;23;20165;-96
2021/06/12 09:38:52;;;;;;;2.87;2.20;;;13.20;99.90;;;;;;6187826;23;20188;-96
2021/06/12 09:41:28;;;;;;;2.47;2.00;;;13.20;99.90;;;;;;6186866;23;20188;-96
2021/06/12 09:43:59;;;;;;;2.93;2.10;;;13.10;99.90;;;;;;6188070;23;20620;-95
2021/06/12 09:46:41;;;;;;;4.23;2.03;;;13.20;99.90;;;;;;6188290;23;20224;-96
2021/06/12 09:49:16;;;;;;;2.43;2.17;;;13.20;99.90;;;;;;6188874;23;20632;-96
2021/06/12 09:52:08;;;;;;;2.20;1.83;;;13.20;99.90;;;;;;6186560;23;20180;-96
2021/06/12 09:54:43;;;;;;;4.00;2.17;;;13.00;99.90;;;;;;6187786;23;20165;-96
2021/06/12 09:57:17;;;;;;;2.10;1.83;;;12.90;99.90;;;;;;6188077;23;20173;-96
2021/06/12 09:59:49;;;;;;;3.40;2.47;;;12.90;99.90;;;;;;6186893;23;20229;-96
2021/06/12 10:02:38;;;;;;;4.27;2.53;;;12.90;99.90;;;;;;6161420;23;20176;-96
2021/06/12 10:05:15;;;;;;;4.50;2.43;;;13.00;99.90;;;;;;6188118;23;20189;-96
2021/06/12 10:07:46;;;;;;;4.03;2.37;;;13.00;99.90;;;;;;6187724;23;20184;-96
2021/06/12 10:10:21;;;;;;;2.80;2.13;;;13.00;99.90;;;;;;6161841;23;20631;-96
2021/06/12 10:12:55;;;;;;;2.50;2.30;;;13.10;99.90;;;;;;6187043;23;20248;-96
2021/06/12 10:15:27;;;;;;;3.00;2.20;;;13.10;99.90;;;;;;6187573;23;20488;-96
2021/06/12 10:18:00;;;;;;;4.00;2.40;;;13.10;99.90;;;;;;6187875;23;20176;-96
2021/06/12 10:20:32;;;;;;;2.77;2.47;;;13.10;99.90;;;;;;6186971;23;20173;-96
2021/06/12 10:23:04;;;;;;;3.63;2.33;;;13.10;99.90;;;;;;6187355;23;20204;-96
2021/06/12 10:25:36;;;;;;;3.67;2.40;;;13.10;99.90;;;;;;6187054;23;20197;-96
2021/06/12 10:28:08;;;;;;;3.80;1.97;;;13.10;99.90;;;;;;6187853;23;20208;-96
2021/06/12 10:30:44;;;;;;;2.30;1.93;;;13.10;99.90;;;;;;6186730;23;20204;-96
2021/06/12 10:33:24;;;;;;;2.70;1.87;;;13.10;99.90;;;;;;6188638;23;20252;-96
2021/06/12 10:36:09;;;;;;;2.30;2.00;;;13.20;99.90;;;;;;6186938;23;20256;-96
2021/06/12 10:38:40;;;;;;;2.67;1.93;;;13.10;99.90;;;;;;6186923;23;20197;-95
2021/06/12 10:41:20;;;;;;;3.73;2.30;;;13.10;99.90;;;;;;6162055;23;20170;-96
2021/06/12 10:43:53;;;;;;;2.93;2.03;;;13.00;99.90;;;;;;6186590;23;20197;-96
2021/06/12 10:46:25;;;;;;;2.20;2.00;;;12.90;99.90;;;;;;6186894;23;20269;-96
2021/06/12 10:49:02;;;;;;;2.83;2.20;;;12.80;99.90;;;;;;6187791;23;20184;-96
2021/06/12 10:51:49;;;;;;;4.63;2.23;;;12.80;99.90;;;;;;6186960;23;20177;-96
2021/06/12 10:54:34;;;;;;;1.97;1.70;;;12.70;99.90;;;;;;6187530;23;20256;-96
2021/06/12 10:57:18;;;;;;;2.13;1.60;;;12.50;99.90;;;;;;6187053;23;20188;-96
2021/06/12 10:59:51;;;;;;;2.07;1.87;;;12.40;99.90;;;;;;6186879;23;20715;-96
2021/06/12 11:02:26;;;;;;;3.30;2.00;;;12.30;99.90;;;;;;6187646;23;20184;-96
2021/06/12 11:05:01;;;;;;;3.20;1.70;;;12.30;99.90;;;;;;6187391;23;20180;-96
2021/06/12 11:07:33;;;;;;;4.00;1.60;;;12.20;99.90;;;;;;6187445;23;20200;-96
2021/06/12 11:10:28;;;;;;;4.03;1.77;;;12.20;99.90;;;;;;6186551;23;20168;-96
2021/06/12 11:12:59;;;;;;;4.50;1.77;;;12.20;99.90;;;;;;6187726;23;20197;-96
2021/06/12 11:15:38;;;;;;;2.30;1.50;;;12.20;99.90;;;;;;6187595;23;20177;-96
2021/06/12 11:18:21;;;;;;;2.03;1.60;;;12.20;99.90;;;;;;6187766;23;20166;-96
2021/06/12 11:21:08;;;;;;;1.67;1.50;;;12.20;99.90;;;;;;6183206;23;20220;-96
2021/06/12 11:23:48;;;;;;;2.80;1.63;;;12.30;99.90;;;;;;6162102;23;20197;-96
2021/06/12 11:26:18;;;;;;;3.37;1.40;;;12.40;99.90;;;;;;6187017;23;20201;-95
2021/06/12 11:29:08;;;;;;;3.10;1.50;;;12.40;99.90;;;;;;6161593;23;20200;-95
2021/06/12 11:31:40;;;;;;;2.57;1.30;;;12.40;99.90;;;;;;6161105;23;20165;-95
2021/06/12 11:34:16;;;;;;;2.80;1.40;;;12.50;99.90;;;;;;6188438;23;20177;-95
2021/06/12 11:36:51;;;;;;;2.93;1.23;;;12.50;99.90;;;;;;6189024;23;20198;-95
2021/06/12 11:39:22;;;;;;;3.23;1.40;;;12.60;99.90;;;;;;6189405;23;20558;-96
2021/06/12 11:41:55;;;;;;;3.30;1.50;;;12.60;99.90;;;;;;6209681;23;20180;-95
2021/06/12 11:44:28;;;;;;;2.17;1.20;;;12.60;99.90;;;;;;6212885;23;20185;-96
2021/06/12 11:46:59;;;;;;;3.13;1.40;;;12.60;99.90;;;;;;6208224;23;20201;-95
2021/06/12 11:49:29;;;;;;;1.33;1.10;;;12.60;99.90;;;;;;6190406;23;20176;-96
2021/06/12 11:52:02;;;;;;;2.93;1.37;;;12.60;99.90;;;;;;6189179;23;20193;-96
2021/06/12 11:54:33;;;;;;;4.43;1.30;;;12.60;99.90;;;;;;6163302;23;20247;-96
2021/06/12 11:57:07;;;;;;;3.93;1.40;;;12.60;99.90;;;;;;6164414;23;20181;-96
2021/06/12 11:59:38;;;;;;;5.33;1.63;;;12.50;99.90;;;;;;6189696;23;20207;-96
2021/06/12 12:02:09;;;;;;;2.00;1.40;;;12.50;99.90;;;;;;6189533;23;20177;-96
2021/06/12 12:04:42;;;;;;;2.20;1.37;;;12.50;99.90;;;;;;6190219;23;20185;-96
2021/06/12 12:07:16;;;;;;;3.70;1.37;;;12.50;99.90;;;;;;6188955;23;20231;-96
2021/06/12 12:09:57;;;;;;;1.77;1.20;;;12.40;99.90;;;;;;6189160;23;20213;-96
2021/06/12 12:12:35;;;;;;;7.13;1.77;;;12.40;99.90;;;;;;6188649;23;20200;-96
2021/06/12 12:15:07;;;;;;;1.97;1.30;;;12.30;99.90;;;;;;6190188;23;20232;-96
2021/06/12 12:17:39;;;;;;;5.00;1.50;;;12.20;99.90;;;;;;6146238;23;20189;-95
2021/06/12 12:20:12;;;;;;;3.33;1.47;;;12.20;99.90;;;;;;6200797;23;20169;-96
2021/06/12 12:22:47;;;;;;;2.33;1.30;;;12.10;99.90;;;;;;6176388;23;20177;-96
2021/06/12 12:25:25;;;;;;;5.20;1.57;;;12.10;99.90;;;;;;6194357;23;20239;-96
2021/06/12 12:28:10;;;;;;;4.23;1.50;;;12.00;99.90;;;;;;6192055;23;20219;-96
2021/06/12 12:30:43;;;;;;;1.93;1.17;;;11.90;99.90;;;;;;6188258;23;20200;-96
2021/06/12 12:33:15;;;;;;;5.53;1.70;;;11.80;99.90;;;;;;6189426;23;20184;-96
2021/06/12 12:35:48;;;;;;;3.10;1.63;;;11.70;99.90;;;;;;6188542;23;20184;-96
2021/06/12 12:38:22;;;;;;;5.40;1.63;;;11.70;99.90;;;;;;6188201;23;20204;-95
2021/06/12 12:40:53;;;;;;;6.50;1.43;;;11.60;99.90;;;;;;6186643;23;20177;-96
2021/06/12 12:43:24;;;;;;;2.00;1.77;;;11.60;99.90;;;;;;6189950;23;20165;-96
2021/06/12 12:45:56;;;;;;;6.40;2.03;;;11.50;99.90;;;;;;6163315;23;20180;-96
2021/06/12 12:48:28;;;;;;;4.23;1.80;;;11.50;99.90;;;;;;6167403;23;20181;-96
2021/06/12 12:50:59;;;;;;;4.83;1.87;;;11.40;99.90;;;;;;6198112;23;20185;-96
2021/06/12 12:53:40;;;;;;;4.80;1.90;;;11.50;99.90;;;;;;6184461;23;20166;-95
2021/06/12 12:56:10;;;;;;;5.53;2.10;;;11.60;99.90;;;;;;6204835;23;20168;-96
2021/06/12 12:58:41;;;;;;;4.13;1.77;;;11.60;99.90;;;;;;6175165;23;20180;-96
2021/06/12 13:01:14;;;;;;;4.80;1.73;;;11.50;99.90;;;;;;6202150;23;20169;-96
2021/06/12 13:03:46;;;;;;;3.17;1.60;;;11.50;99.90;;;;;;6197828;23;20514;-96
2021/06/12 13:06:34;;;;;;;3.03;1.90;;;11.50;99.90;;;;;;6165153;23;20176;-96
2021/06/12 13:09:16;;;;;;;3.77;1.80;;;11.50;99.90;;;;;;6191054;23;20173;-96
2021/06/12 13:11:48;;;;;;;4.73;1.80;;;11.50;99.90;;;;;;6189483;23;20184;-96
2021/06/12 13:14:29;;;;;;;4.20;1.43;;;11.50;99.90;;;;;;6189523;23;20181;-96
2021/06/12 13:17:01;;;;;;;2.17;1.87;;;11.50;99.90;;;;;;6190058;23;20173;-96
2021/06/12 13:19:37;;;;;;;4.13;1.70;;;11.60;99.90;;;;;;6190828;23;20212;-96
2021/06/12 13:22:09;;;;;;;4.37;1.60;;;11.60;99.90;;;;;;6189815;23;20612;-96
2021/06/12 13:25:15;;;;;;;4.00;1.93;;;11.70;99.90;;;;;;6190067;23;20534;-96
2021/06/12 13:27:48;;;;;;;3.73;1.70;;;11.60;99.90;;;;;;6099089;23;20299;-96
2021/06/12 13:30:33;;;;;;;3.37;1.93;;;11.60;99.90;;;;;;6177642;23;20755;-96
2021/06/12 13:33:13;;;;;;;3.60;1.70;;;11.70;99.90;;;;;;6187608;23;20177;-96
2021/06/12 13:35:47;;;;;;;4.60;1.70;;;11.70;99.90;;;;;;6188211;23;20241;-96
2021/06/12 13:38:20;;;;;;;5.10;1.90;;;11.70;99.90;;;;;;6187861;23;20196;-95
2021/06/12 13:40:58;;;;;;;2.23;1.53;;;11.70;99.90;;;;;;6162121;23;20200;-96
2021/06/12 13:43:31;;;;;;;1.67;1.57;;;11.70;99.90;;;;;;6188352;23;20248;-96
2021/06/12 13:46:08;;;;;;;4.33;1.77;;;11.70;99.90;;;;;;6190169;23;20188;-96
2021/06/12 13:48:44;;;;;;;4.73;2.27;;;11.80;99.90;;;;;;6189102;23;20200;-96
2021/06/12 13:51:16;;;;;;;6.37;2.90;;;11.90;99.90;;;;;;6187062;23;20200;-96
2021/06/12 13:53:49;;;;;;;20.33;3.40;;;12.00;99.90;;;;;;6196539;23;20240;-96
2021/06/12 14:10:12;;;;;;;4.13;3.70;;;12.20;99.90;;;;;;5149209;27;358181;-96
2021/06/12 14:12:44;;;;;;;3.80;3.50;;;12.60;99.90;;;;;;5162086;27;20618;-96
2021/06/12 14:15:18;;;;;;;3.63;3.30;;;12.80;99.90;;;;;;5161953;27;20182;-96
2021/06/12 14:17:50;;;;;;;5.07;3.20;;;13.10;99.90;;;;;;5142655;27;20663;-96
2021/06/12 14:20:21;;;;;;;2.73;2.53;;;13.20;99.90;;;;;;5156535;27;20200;-96
2021/06/12 14:22:54;;;;;;;2.60;2.30;;;13.20;99.90;;;;;;5141161;27;20236;-95
2021/06/12 14:25:29;;;;;;;3.07;1.93;;;13.20;99.90;;;;;;5146966;27;20289;-96
2021/06/12 14:28:03;;;;;;;2.47;1.83;;;13.00;99.90;;;;;;5152062;27;20223;-96
2021/06/12 14:30:36;;;;;;;2.43;2.20;;;13.00;99.90;;;;;;5172161;27;20204;-96
2021/06/12 14:33:07;;;;;;;2.60;2.10;;;13.00;99.90;;;;;;5174735;27;20197;-96
2021/06/12 14:35:39;;;;;;;4.07;2.17;;;12.90;99.90;;;;;;5154575;27;20197;-95
2021/06/12 14:38:11;;;;;;;3.13;2.47;;;13.00;99.90;;;;;;5145092;27;20189;-96
2021/06/12 14:40:45;;;;;;;4.33;2.10;;;13.10;99.90;;;;;;5176355;27;20177;-96
2021/06/12 14:43:17;;;;;;;2.77;2.00;;;13.30;99.90;;;;;;5176537;27;20197;-96
2021/06/12 14:51:05;;;;;;;1.93;1.10;;;15.00;99.90;;;;;;5215462;23;20642;-96
2021/06/12 14:53:37;;;;;;;1.37;1.10;;;15.70;99.90;;;;;;5019579;28;20210;-96
2021/06/12 14:56:10;;;;;;;2.63;0.87;;;16.00;99.90;;;;;;5021976;28;20206;-96
2021/06/12 14:58:42;;;;;;;2.87;0.77;;;16.60;99.90;;;;;;5012912;28;20620;-96
2021/06/12 15:11:59;;;;;;;1.47;0.80;;;18.30;99.90;;;;;;5698931;23;20649;-96
2021/06/12 15:14:29;;;;;;;2.33;0.80;;;18.60;99.90;;;;;;5066641;28;20227;-96
2021/06/12 15:35:52;;;;;;;2.90;0.50;;;17.30;99.90;;;;;;5842791;23;20257;-95
2021/06/12 15:38:25;;;;;;;2.83;0.80;;;17.20;99.90;;;;;;4996372;28;20220;-96
2021/06/12 15:41:10;;;;;;;3.40;0.73;;;16.80;99.90;;;;;;4992134;28;20226;-96
2021/06/12 15:43:43;;;;;;;1.27;0.83;;;16.60;99.90;;;;;;4987938;28;20214;-96
2021/06/12 15:46:14;;;;;;;2.93;0.90;;;16.60;99.90;;;;;;4966737;28;20219;-96
2021/06/12 15:48:45;;;;;;;1.83;0.80;;;16.50;99.90;;;;;;4989758;28;20239;-96
2021/06/12 15:51:19;;;;;;;2.50;1.17;;;16.50;99.90;;;;;;4990849;28;20238;-96
2021/06/12 15:53:50;;;;;;;1.37;0.90;;;16.50;99.90;;;;;;4961287;28;20545;-96
2021/06/12 15:56:22;;;;;;;1.70;1.00;;;16.50;99.90;;;;;;4988331;28;20222;-96
2021/06/12 16:01:28;;;;;;;6.23;0.97;;;16.70;99.90;;;;;;5935554;23;20827;-96
2021/06/12 16:04:00;;;;;;;0.97;0.70;;;16.80;99.90;;;;;;5001553;28;20651;-96
2021/06/12 16:06:33;;;;;;;3.23;0.80;;;16.80;99.90;;;;;;5009161;28;20620;-96
2021/06/12 16:09:04;;;;;;;2.07;1.00;;;16.80;99.90;;;;;;5008221;28;20242;-96
2021/06/12 16:11:35;;;;;;;3.47;1.00;;;16.70;99.90;;;;;;4999032;28;20554;-96
2021/06/12 16:14:06;;;;;;;2.87;1.03;;;16.60;99.90;;;;;;5026258;28;20225;-96
2021/06/12 16:16:38;;;;;;;3.33;0.80;;;16.70;99.90;;;;;;5017022;28;20206;-96
2021/06/12 16:19:09;;;;;;;0.80;0.80;;;16.60;99.90;;;;;;5005878;28;20277;-96
2021/06/12 16:21:42;;;;;;;1.73;0.80;;;16.60;99.90;;;;;;5018829;28;20194;-96